Time;durP1;ratioP1;P1;durP2;ratioP2;P2;SDS_P1;SDS_P2;PMS_P1;PMS_P2;Temp;Humidity;BMP_temperature;BMP_pressure;BME280_temperature;BME280_humidity;BME280_pressure;Samples;Min_cycle;Max_cycle;Signal;HPM_P1;HPM_P2
2023/10/25 02:04:08;;;;;;;20.77;12.95;;;8.40;99.90;;;;;;5026045;28;20056;-69
2023/10/25 02:06:34;;;;;;;17.98;11.10;;;8.50;99.90;;;;;;5048198;28;20631;-70
2023/10/25 02:09:00;;;;;;;17.20;10.95;;;8.50;99.90;;;;;;5021357;28;20305;-71
2023/10/25 02:11:26;;;;;;;17.75;11.40;;;8.40;99.90;;;;;;5028844;28;20517;-71
2023/10/25 02:13:51;;;;;;;17.83;11.32;;;8.30;99.90;;;;;;5031699;28;20075;-70
2023/10/25 02:16:18;;;;;;;16.27;10.63;;;8.40;99.90;;;;;;5033165;28;20036;-70
2023/10/25 02:18:44;;;;;;;18.55;11.05;;;8.50;99.90;;;;;;5015651;28;20056;-70
2023/10/25 02:21:10;;;;;;;17.48;10.68;;;8.40;99.90;;;;;;5033765;28;20550;-69
2023/10/25 02:23:36;;;;;;;16.17;10.60;;;8.50;99.90;;;;;;5017405;28;20709;-70
2023/10/25 02:26:02;;;;;;;15.57;10.25;;;8.40;99.90;;;;;;5033708;28;20521;-70
2023/10/25 02:28:28;;;;;;;18.67;11.57;;;8.30;99.90;;;;;;5017427;28;20036;-70
2023/10/25 02:30:53;;;;;;;18.25;10.65;;;8.30;99.90;;;;;;5034618;28;20127;-70
2023/10/25 02:33:19;;;;;;;14.88;11.15;;;8.30;99.90;;;;;;5033174;28;20263;-70
2023/10/25 02:35:45;;;;;;;19.70;11.15;;;8.20;99.90;;;;;;5015763;28;20505;-70
2023/10/25 02:38:10;;;;;;;18.70;10.82;;;8.20;99.90;;;;;;5017664;28;20124;-70
2023/10/25 02:40:36;;;;;;;22.98;12.13;;;8.30;99.90;;;;;;5004814;28;20364;-70
2023/10/25 02:43:02;;;;;;;19.00;12.25;;;8.40;99.90;;;;;;5016838;28;20290;-70
2023/10/25 02:45:28;;;;;;;17.48;11.38;;;8.40;99.90;;;;;;5015807;28;20451;-69
2023/10/25 02:47:57;;;;;;;23.65;12.50;;;8.40;99.90;;;;;;5014391;28;20552;-70
2023/10/25 02:50:22;;;;;;;25.38;13.10;;;8.40;99.90;;;;;;5016279;28;20303;-70
2023/10/25 02:52:48;;;;;;;18.42;12.63;;;8.10;99.90;;;;;;5017130;28;20040;-70
2023/10/25 02:55:17;;;;;;;19.58;12.07;;;8.00;99.90;;;;;;5012640;28;20106;-70
2023/10/25 02:57:43;;;;;;;19.15;13.68;;;8.20;99.90;;;;;;5003598;28;20777;-71
2023/10/25 03:00:10;;;;;;;22.65;13.48;;;8.10;99.90;;;;;;5015904;28;20108;-71
2023/10/25 03:02:39;;;;;;;20.25;12.73;;;8.30;99.90;;;;;;5012986;28;20118;-70
2023/10/25 03:05:05;;;;;;;20.70;11.43;;;8.20;99.90;;;;;;5016967;28;20384;-70
2023/10/25 03:07:31;;;;;;;21.00;13.38;;;8.20;99.90;;;;;;5032687;28;20041;-69
2023/10/25 03:09:56;;;;;;;19.38;12.23;;;8.10;99.90;;;;;;5001094;28;20047;-70
2023/10/25 03:12:22;;;;;;;24.10;13.32;;;8.20;99.90;;;;;;5016863;28;20132;-70
2023/10/25 03:14:48;;;;;;;23.95;14.20;;;8.20;99.90;;;;;;5016593;28;20400;-69
2023/10/25 03:17:14;;;;;;;20.98;13.70;;;8.10;99.90;;;;;;5032213;28;20403;-70
2023/10/25 03:19:39;;;;;;;20.67;13.15;;;8.30;99.90;;;;;;5016028;28;20037;-70
2023/10/25 03:22:06;;;;;;;24.65;13.85;;;8.10;99.90;;;;;;5027412;28;20068;-70
2023/10/25 03:24:32;;;;;;;22.67;14.32;;;8.10;99.90;;;;;;5014725;28;20045;-70
2023/10/25 03:26:58;;;;;;;29.10;15.35;;;8.00;99.90;;;;;;5021810;28;20055;-70
2023/10/25 03:29:24;;;;;;;23.73;14.20;;;8.20;99.90;;;;;;5031965;28;20043;-69
2023/10/25 03:31:53;;;;;;;21.70;15.63;;;8.30;99.90;;;;;;5010249;28;20046;-70
2023/10/25 03:34:19;;;;;;;19.40;14.30;;;8.10;99.90;;;;;;5032708;28;20149;-70
2023/10/25 03:36:45;;;;;;;22.92;15.98;;;8.20;99.90;;;;;;5015382;28;21540;-70
2023/10/25 03:39:15;;;;;;;25.58;15.32;;;8.10;99.90;;;;;;4996859;28;20135;-69
2023/10/25 03:41:43;;;;;;;24.75;15.57;;;8.30;99.90;;;;;;5032695;28;20625;-71
2023/10/25 03:44:09;;;;;;;23.90;15.85;;;8.10;99.90;;;;;;5003585;28;20746;-70
2023/10/25 03:46:34;;;;;;;27.45;17.33;;;8.20;99.90;;;;;;5030559;28;20044;-70
2023/10/25 03:49:00;;;;;;;27.48;17.73;;;8.20;99.90;;;;;;5015909;28;20044;-70
2023/10/25 03:51:26;;;;;;;35.63;18.80;;;8.20;99.90;;;;;;5009677;28;20044;-70
2023/10/25 03:53:51;;;;;;;28.85;17.30;;;8.10;99.90;;;;;;5031650;28;20303;-70
2023/10/25 03:56:18;;;;;;;27.63;19.27;;;8.10;99.90;;;;;;4997906;28;20072;-70
2023/10/25 03:58:43;;;;;;;28.92;19.35;;;7.80;99.90;;;;;;5012122;28;20258;-71
2023/10/25 04:01:09;;;;;;;36.55;20.38;;;7.90;99.90;;;;;;5031378;28;20044;-70
2023/10/25 04:03:35;;;;;;;32.25;20.15;;;8.00;99.90;;;;;;5009787;28;20485;-70
2023/10/25 04:06:03;;;;;;;29.70;20.08;;;7.70;99.90;;;;;;4994708;28;20053;-71
2023/10/25 04:08:28;;;;;;;38.83;22.40;;;8.10;99.90;;;;;;5028132;28;20110;-70
2023/10/25 04:10:56;;;;;;;35.53;22.27;;;8.00;99.90;;;;;;5010092;28;20523;-71
2023/10/25 04:13:23;;;;;;;32.42;21.60;;;7.60;99.90;;;;;;5009883;28;20139;-71
2023/10/25 04:15:58;;;;;;;34.63;22.20;;;7.70;99.90;;;;;;5006584;28;20754;-70
2023/10/25 04:18:26;;;;;;;34.80;22.38;;;7.60;99.90;;;;;;5026991;28;20049;-71
2023/10/25 04:20:52;;;;;;;29.55;21.23;;;8.00;99.90;;;;;;5028442;28;20471;-70
2023/10/25 04:23:18;;;;;;;35.50;21.08;;;7.90;99.90;;;;;;5027350;28;20052;-71
2023/10/25 04:25:44;;;;;;;33.35;20.98;;;7.90;99.90;;;;;;5027936;28;20203;-71
2023/10/25 04:28:10;;;;;;;26.98;20.13;;;8.10;99.90;;;;;;5026377;28;20068;-69
2023/10/25 04:30:36;;;;;;;30.95;20.65;;;8.20;99.90;;;;;;4995662;28;20222;-71
2023/10/25 04:33:02;;;;;;;28.13;19.20;;;8.20;99.90;;;;;;5012799;28;20037;-70
2023/10/25 04:35:28;;;;;;;33.40;21.55;;;8.10;99.90;;;;;;5011751;28;20048;-70
2023/10/25 04:37:55;;;;;;;28.88;19.05;;;7.80;99.90;;;;;;5009233;28;20101;-71
2023/10/25 04:40:21;;;;;;;26.65;18.80;;;7.90;99.90;;;;;;4994791;28;20336;-71
2023/10/25 04:42:50;;;;;;;29.42;19.23;;;7.90;99.90;;;;;;5026233;28;20226;-70
2023/10/25 04:45:16;;;;;;;25.90;17.02;;;8.00;99.90;;;;;;5011721;28;20055;-70
2023/10/25 04:47:42;;;;;;;30.25;20.17;;;7.80;99.90;;;;;;5027734;28;20110;-70
2023/10/25 04:50:08;;;;;;;29.23;18.27;;;8.10;99.90;;;;;;5010542;28;20532;-71
2023/10/25 04:52:34;;;;;;;32.70;19.02;;;7.70;99.90;;;;;;5027842;28;20087;-70
2023/10/25 04:55:00;;;;;;;32.97;19.50;;;7.90;99.90;;;;;;5010975;28;20115;-69
2023/10/25 04:57:25;;;;;;;28.67;18.67;;;7.70;99.90;;;;;;5010081;28;20040;-70
2023/10/25 04:59:52;;;;;;;27.48;17.00;;;7.80;99.90;;;;;;5010922;28;20202;-70
2023/10/25 05:02:18;;;;;;;25.63;17.05;;;8.00;99.90;;;;;;4999350;28;20038;-70
2023/10/25 05:04:44;;;;;;;25.27;17.75;;;7.90;99.90;;;;;;5010954;28;20067;-69
2023/10/25 05:07:10;;;;;;;28.63;15.82;;;8.00;99.90;;;;;;5010354;28;20056;-69
2023/10/25 05:09:36;;;;;;;28.13;17.92;;;7.90;99.90;;;;;;5009763;28;20376;-69
2023/10/25 05:12:08;;;;;;;29.50;17.45;;;7.70;99.90;;;;;;5025257;28;20497;-70
2023/10/25 05:14:35;;;;;;;32.22;18.38;;;7.80;99.90;;;;;;5027456;28;20043;-69
2023/10/25 05:17:01;;;;;;;24.90;17.00;;;7.90;99.90;;;;;;4993774;28;20055;-70
2023/10/25 05:19:27;;;;;;;28.55;17.30;;;7.80;99.90;;;;;;5003607;28;20184;-71
2023/10/25 05:21:55;;;;;;;23.23;15.95;;;7.80;99.90;;;;;;5026632;28;20047;-69
2023/10/25 05:24:22;;;;;;;25.10;17.52;;;7.80;99.90;;;;;;5009822;28;20399;-70
2023/10/25 05:26:48;;;;;;;29.70;17.27;;;7.70;99.90;;;;;;5026703;28;20115;-70
2023/10/25 05:29:14;;;;;;;29.08;17.15;;;7.70;99.90;;;;;;5027013;28;20391;-69
2023/10/25 05:31:44;;;;;;;28.98;18.27;;;7.50;99.90;;;;;;5026286;28;20411;-71
2023/10/25 05:34:10;;;;;;;29.90;18.25;;;7.70;99.90;;;;;;5026767;28;20041;-71
2023/10/25 05:36:39;;;;;;;34.42;19.23;;;7.50;99.90;;;;;;5026166;28;20060;-70
2023/10/25 05:39:06;;;;;;;23.35;16.65;;;7.70;99.90;;;;;;5009549;28;20044;-70
2023/10/25 05:41:36;;;;;;;26.55;17.13;;;7.80;99.90;;;;;;5028070;28;20075;-71
2023/10/25 05:44:14;;;;;;;28.85;18.10;;;7.50;99.90;;;;;;5026020;28;20048;-70
2023/10/25 05:46:41;;;;;;;26.83;19.45;;;7.80;99.90;;;;;;5026862;28;20126;-70
2023/10/25 05:49:07;;;;;;;32.08;19.75;;;7.20;99.90;;;;;;4996652;28;20039;-69
2023/10/25 05:51:34;;;;;;;29.90;17.48;;;7.70;99.90;;;;;;5029941;28;20067;-69
2023/10/25 05:54:00;;;;;;;29.15;18.77;;;7.30;99.90;;;;;;5014124;28;20071;-70
2023/10/25 05:56:26;;;;;;;28.48;17.75;;;7.20;99.90;;;;;;5030239;28;20525;-69
2023/10/25 05:58:58;;;;;;;30.15;18.73;;;7.30;99.90;;;;;;5003319;28;20470;-70
2023/10/25 06:01:36;;;;;;;27.02;18.23;;;7.50;99.90;;;;;;5013341;28;20029;-70
2023/10/25 06:04:04;;;;;;;29.17;18.25;;;7.50;99.90;;;;;;5031223;28;20336;-70
2023/10/25 06:06:31;;;;;;;26.10;17.67;;;7.20;99.90;;;;;;5030992;28;20056;-69
2023/10/25 06:08:57;;;;;;;25.40;16.63;;;7.70;99.90;;;;;;5008142;28;20122;-70
2023/10/25 06:11:23;;;;;;;30.70;18.08;;;7.40;99.90;;;;;;4998693;28;20511;-70
2023/10/25 06:13:49;;;;;;;30.15;17.80;;;7.60;99.90;;;;;;4997219;28;20044;-69
2023/10/25 06:16:14;;;;;;;31.52;19.25;;;7.60;99.90;;;;;;5030028;28;20519;-70
2023/10/25 06:18:40;;;;;;;27.05;17.48;;;7.30;99.90;;;;;;5029605;28;20119;-69
2023/10/25 06:21:06;;;;;;;27.48;17.30;;;7.50;99.90;;;;;;5012982;28;20037;-69
2023/10/25 06:23:33;;;;;;;27.33;17.05;;;7.60;99.90;;;;;;5029189;28;20052;-70
2023/10/25 06:25:59;;;;;;;25.27;17.17;;;7.40;99.90;;;;;;5027896;28;20118;-70
2023/10/25 06:28:25;;;;;;;22.45;16.10;;;7.60;99.90;;;;;;5009062;28;20048;-70
2023/10/25 06:30:51;;;;;;;23.10;14.75;;;7.30;99.90;;;;;;5012608;28;20362;-69
2023/10/25 06:33:17;;;;;;;23.98;14.88;;;7.70;99.90;;;;;;5030515;28;20346;-69
2023/10/25 06:35:45;;;;;;;23.75;14.65;;;7.60;99.90;;;;;;5012414;28;20057;-70
2023/10/25 06:38:11;;;;;;;23.60;13.85;;;7.60;99.90;;;;;;5021442;28;20468;-70
2023/10/25 06:40:37;;;;;;;24.67;15.35;;;7.70;99.90;;;;;;5029171;28;20055;-69
2023/10/25 06:43:03;;;;;;;21.70;14.80;;;7.60;99.90;;;;;;5013503;28;20095;-70
2023/10/25 06:45:29;;;;;;;23.45;15.13;;;7.20;99.90;;;;;;4998061;28;20032;-69
2023/10/25 06:47:56;;;;;;;26.25;15.35;;;7.40;99.90;;;;;;5004556;28;20056;-70
2023/10/25 06:50:25;;;;;;;27.02;16.15;;;7.30;99.90;;;;;;5012896;28;20045;-70
2023/10/25 06:52:51;;;;;;;23.08;15.68;;;7.20;99.90;;;;;;5028570;28;20291;-69
2023/10/25 06:55:17;;;;;;;23.23;15.95;;;7.70;99.90;;;;;;5011346;28;20139;-71
2023/10/25 06:57:43;;;;;;;22.33;15.25;;;7.50;99.90;;;;;;5010873;28;20811;-70
2023/10/25 07:00:10;;;;;;;25.08;15.63;;;7.60;99.90;;;;;;5026609;28;20033;-70
2023/10/25 07:02:52;;;;;;;25.70;16.35;;;7.70;99.90;;;;;;5013483;28;20048;-70
2023/10/25 07:05:21;;;;;;;29.42;16.15;;;7.80;99.90;;;;;;5026283;28;20045;-70
2023/10/25 07:07:50;;;;;;;22.92;17.05;;;7.60;99.90;;;;;;5010096;28;20160;-71
2023/10/25 07:10:16;;;;;;;22.70;15.55;;;7.50;99.90;;;;;;5028786;28;20036;-69
2023/10/25 07:12:42;;;;;;;29.98;16.83;;;7.80;99.90;;;;;;5007691;28;20037;-70
2023/10/25 07:15:09;;;;;;;22.90;17.15;;;7.80;99.90;;;;;;5030339;28;20123;-71
2023/10/25 07:17:34;;;;;;;25.25;17.92;;;7.50;99.90;;;;;;5003896;28;20072;-70
2023/10/25 07:20:01;;;;;;;25.10;16.15;;;7.70;99.90;;;;;;5029612;28;20041;-71
2023/10/25 07:22:28;;;;;;;26.50;17.38;;;7.70;99.90;;;;;;5014458;28;20052;-69
2023/10/25 07:24:55;;;;;;;24.90;16.60;;;7.80;99.90;;;;;;5003710;28;20533;-69
2023/10/25 07:27:21;;;;;;;23.70;16.35;;;7.60;99.90;;;;;;5015203;28;20353;-70
2023/10/25 07:29:48;;;;;;;28.20;16.63;;;8.00;99.90;;;;;;5030711;28;20041;-69
2023/10/25 07:32:13;;;;;;;21.35;15.15;;;7.60;99.90;;;;;;5030164;28;20406;-69
2023/10/25 07:34:40;;;;;;;25.05;16.40;;;7.80;99.90;;;;;;5029702;28;20051;-68
2023/10/25 07:37:05;;;;;;;25.42;15.70;;;8.00;99.90;;;;;;5013686;28;20585;-69
2023/10/25 07:39:31;;;;;;;20.38;15.65;;;8.10;99.90;;;;;;5012892;28;20443;-68
2023/10/25 07:41:57;;;;;;;24.23;16.48;;;8.00;99.90;;;;;;5030219;28;20370;-69
2023/10/25 07:44:23;;;;;;;23.42;15.25;;;8.00;99.90;;;;;;4998006;28;20080;-69
2023/10/25 07:46:48;;;;;;;22.85;14.30;;;8.20;99.90;;;;;;5013444;28;20383;-68
2023/10/25 07:49:14;;;;;;;23.60;15.23;;;7.90;99.90;;;;;;5014016;28;20333;-69
2023/10/25 07:51:40;;;;;;;22.42;14.35;;;7.90;99.90;;;;;;5012298;28;20079;-69
2023/10/25 07:54:06;;;;;;;18.80;11.82;;;8.20;99.90;;;;;;5029537;28;20715;-69
2023/10/25 07:56:31;;;;;;;16.92;11.18;;;8.40;99.90;;;;;;5011758;28;20439;-69
2023/10/25 07:58:58;;;;;;;13.63;9.75;;;9.00;99.90;;;;;;5014485;28;20262;-70
2023/10/25 08:01:24;;;;;;;17.40;9.63;;;9.30;99.90;;;;;;5012262;28;21690;-69
2023/10/25 08:03:49;;;;;;;15.73;8.55;;;9.60;99.90;;;;;;5029152;28;20033;-70
2023/10/25 08:06:15;;;;;;;15.40;8.00;;;9.90;99.90;;;;;;4995969;28;20444;-71
2023/10/25 08:08:41;;;;;;;12.32;7.18;;;9.80;99.90;;;;;;5029181;28;20051;-68
2023/10/25 08:11:07;;;;;;;11.43;7.35;;;9.80;99.90;;;;;;5028788;28;20045;-69
2023/10/25 08:13:35;;;;;;;12.57;6.75;;;10.10;99.90;;;;;;5013257;28;20068;-70
2023/10/25 08:16:02;;;;;;;13.43;6.45;;;10.30;99.90;;;;;;4997545;28;20064;-69
2023/10/25 08:18:29;;;;;;;8.40;5.30;;;10.30;99.90;;;;;;5013056;28;20162;-69
2023/10/25 08:20:58;;;;;;;11.85;6.32;;;10.20;99.90;;;;;;5028675;28;20625;-68
2023/10/25 08:23:24;;;;;;;13.48;5.93;;;10.40;99.90;;;;;;5029649;28;20036;-69
2023/10/25 08:25:51;;;;;;;11.27;5.45;;;10.30;99.90;;;;;;4998016;28;20391;-67
2023/10/25 08:28:17;;;;;;;12.90;6.90;;;10.40;99.90;;;;;;5029601;28;20045;-69
2023/10/25 08:30:43;;;;;;;14.40;6.72;;;10.30;99.90;;;;;;5029754;28;20049;-70
2023/10/25 08:33:10;;;;;;;14.02;6.38;;;10.40;99.90;;;;;;5013214;28;20040;-69
2023/10/25 08:35:37;;;;;;;10.30;5.30;;;10.50;99.90;;;;;;5028641;28;20348;-69
2023/10/25 08:38:04;;;;;;;12.57;6.00;;;10.40;99.90;;;;;;5028880;28;20662;-70
2023/10/25 08:40:31;;;;;;;8.82;5.35;;;10.60;99.90;;;;;;4998160;28;20028;-70
2023/10/25 08:43:01;;;;;;;7.93;5.75;;;10.70;99.90;;;;;;5012498;28;20033;-70
2023/10/25 08:45:29;;;;;;;12.05;5.68;;;10.60;99.90;;;;;;5014008;28;20233;-70
2023/10/25 08:47:55;;;;;;;13.45;6.13;;;10.60;99.90;;;;;;5012094;28;20400;-68
2023/10/25 08:50:20;;;;;;;10.63;5.85;;;10.50;99.90;;;;;;4997194;28;20052;-69
2023/10/25 08:52:50;;;;;;;13.02;7.10;;;10.50;99.90;;;;;;5012620;28;20460;-70
2023/10/25 08:55:18;;;;;;;14.35;6.82;;;10.30;99.90;;;;;;5013191;28;20045;-69
2023/10/25 08:57:43;;;;;;;13.82;7.32;;;10.30;99.90;;;;;;5012573;28;20144;-69
2023/10/25 09:00:11;;;;;;;9.73;6.35;;;10.30;99.90;;;;;;5012995;28;20453;-69
2023/10/25 09:02:38;;;;;;;14.38;7.22;;;10.30;99.90;;;;;;5029605;28;20041;-70
2023/10/25 09:05:08;;;;;;;11.50;6.68;;;10.30;99.90;;;;;;5012514;28;20037;-67
2023/10/25 09:07:35;;;;;;;10.48;6.43;;;10.30;99.90;;;;;;5032116;28;20158;-70
2023/10/25 09:10:05;;;;;;;11.02;6.30;;;10.40;99.90;;;;;;5032747;28;20144;-68
2023/10/25 09:12:32;;;;;;;10.98;7.20;;;10.50;99.90;;;;;;5032083;28;20336;-70
2023/10/25 09:14:58;;;;;;;12.77;6.85;;;10.50;99.90;;;;;;5015188;28;20041;-68
2023/10/25 09:17:24;;;;;;;17.63;7.80;;;10.50;99.90;;;;;;5031516;28;20037;-69
2023/10/25 09:19:50;;;;;;;11.35;7.57;;;10.60;99.90;;;;;;4999249;28;20075;-70
2023/10/25 09:22:27;;;;;;;12.35;7.35;;;10.60;99.90;;;;;;5010661;28;20044;-68
2023/10/25 09:25:03;;;;;;;11.93;6.78;;;10.60;99.90;;;;;;5016487;28;20466;-71
2023/10/25 09:27:30;;;;;;;12.20;7.22;;;10.60;99.90;;;;;;5032123;28;20079;-70
2023/10/25 09:30:13;;;;;;;15.98;7.68;;;10.50;99.90;;;;;;5033675;28;20291;-69
2023/10/25 09:32:39;;;;;;;11.88;7.68;;;10.60;99.90;;;;;;5012056;28;20119;-70
2023/10/25 09:35:06;;;;;;;13.80;7.43;;;10.50;99.90;;;;;;5031108;28;20055;-69
2023/10/25 09:37:32;;;;;;;15.57;7.47;;;10.60;99.90;;;;;;5014722;28;20120;-71
2023/10/25 09:39:58;;;;;;;12.50;8.05;;;10.50;99.90;;;;;;4997529;28;20050;-70
2023/10/25 09:42:25;;;;;;;13.57;8.05;;;10.60;99.90;;;;;;5030759;28;20466;-69
2023/10/25 09:45:01;;;;;;;9.60;7.40;;;10.60;99.90;;;;;;5029369;28;20040;-69
2023/10/25 09:47:29;;;;;;;10.45;7.28;;;10.60;99.90;;;;;;5013421;28;20044;-69
2023/10/25 09:50:06;;;;;;;15.55;8.27;;;10.60;99.90;;;;;;5004943;28;20514;-70
2023/10/25 09:52:37;;;;;;;15.13;7.57;;;10.60;99.90;;;;;;5031084;28;20079;-69
2023/10/25 09:55:13;;;;;;;12.30;7.15;;;10.70;99.90;;;;;;5013997;28;20467;-69
2023/10/25 09:57:40;;;;;;;15.05;7.75;;;10.80;99.90;;;;;;5010647;28;21215;-69
2023/10/25 10:00:08;;;;;;;13.05;7.60;;;10.80;99.90;;;;;;5014279;28;20483;-69
2023/10/25 10:02:53;;;;;;;10.90;7.25;;;10.90;99.90;;;;;;5014784;28;20446;-68
2023/10/25 10:05:28;;;;;;;13.48;7.68;;;10.90;99.90;;;;;;5009769;28;20060;-69
2023/10/25 10:08:18;;;;;;;11.27;7.50;;;10.90;99.90;;;;;;5002045;28;20067;-70
2023/10/25 10:10:57;;;;;;;13.57;7.97;;;11.00;99.90;;;;;;5028828;28;20526;-69
2023/10/25 10:13:24;;;;;;;12.05;7.57;;;11.00;99.90;;;;;;5028217;28;20212;-68
2023/10/25 10:16:04;;;;;;;11.65;7.70;;;11.20;99.90;;;;;;5028374;28;20040;-70
2023/10/25 10:18:42;;;;;;;12.20;7.38;;;11.30;99.90;;;;;;5008131;28;20415;-69
2023/10/25 10:21:10;;;;;;;11.98;7.90;;;11.40;99.90;;;;;;5028089;28;20049;-68
2023/10/25 10:23:41;;;;;;;13.32;7.57;;;11.60;99.90;;;;;;5027425;28;20245;-69
2023/10/25 10:26:08;;;;;;;16.38;7.47;;;11.70;99.90;;;;;;5011517;28;20041;-69
2023/10/25 10:28:46;;;;;;;9.02;6.45;;;12.00;99.90;;;;;;5028352;28;20048;-70
2023/10/25 10:31:13;;;;;;;16.80;6.88;;;12.20;99.90;;;;;;5027883;28;20635;-71
2023/10/25 10:33:47;;;;;;;11.23;6.65;;;12.40;99.90;;;;;;5028114;28;20226;-70
2023/10/25 10:36:27;;;;;;;8.73;6.70;;;12.80;99.90;;;;;;5030912;28;20139;-70
2023/10/25 10:39:15;;;;;;;10.07;5.57;;;12.90;99.90;;;;;;5014969;28;20055;-70
2023/10/25 10:41:42;;;;;;;10.43;5.45;;;13.00;99.90;;;;;;5014801;28;20273;-68
2023/10/25 10:44:08;;;;;;;13.40;6.30;;;13.30;99.90;;;;;;5008958;28;20045;-69
2023/10/25 10:46:43;;;;;;;12.07;6.63;;;13.50;99.90;;;;;;5030947;28;20389;-69
2023/10/25 10:49:11;;;;;;;12.95;5.85;;;13.60;99.90;;;;;;5030847;28;20071;-69
2023/10/25 10:51:37;;;;;;;10.25;6.15;;;13.80;99.90;;;;;;5030854;28;20922;-70
2023/10/25 10:54:03;;;;;;;8.88;5.63;;;13.80;99.90;;;;;;5031487;28;20292;-70
2023/10/25 10:56:29;;;;;;;10.77;5.53;;;14.10;99.90;;;;;;5030411;28;20474;-69
2023/10/25 10:58:54;;;;;;;12.43;5.32;;;14.20;99.90;;;;;;5014116;28;20095;-70
2023/10/25 11:01:20;;;;;;;10.75;5.72;;;14.40;99.90;;;;;;5032001;28;20467;-68
2023/10/25 11:03:48;;;;;;;9.55;5.20;;;14.20;99.90;;;;;;4996218;28;20431;-69
2023/10/25 11:06:14;;;;;;;11.70;5.03;;;14.20;99.90;;;;;;5013450;28;20123;-69
2023/10/25 11:08:41;;;;;;;7.38;4.65;;;14.30;99.90;;;;;;5002348;28;20120;-69
2023/10/25 11:11:07;;;;;;;9.40;5.00;;;14.30;99.90;;;;;;5009186;28;20045;-69
2023/10/25 11:13:33;;;;;;;6.53;4.55;;;14.40;99.90;;;;;;5013621;28;20407;-68
2023/10/25 11:16:11;;;;;;;10.27;4.60;;;14.60;99.90;;;;;;4994739;28;20041;-69
2023/10/25 11:18:37;;;;;;;10.82;4.30;;;14.80;99.90;;;;;;4996639;28;20611;-69
2023/10/25 11:21:03;;;;;;;8.52;4.90;;;15.00;99.90;;;;;;5030138;28;20033;-68
2023/10/25 11:23:29;;;;;;;9.07;5.00;;;15.10;99.90;;;;;;5030401;28;20480;-69
2023/10/25 11:25:55;;;;;;;8.40;5.03;;;15.20;99.90;;;;;;4997879;28;20049;-69
2023/10/25 11:28:21;;;;;;;12.35;4.90;;;15.50;99.90;;;;;;5013232;28;20048;-70
2023/10/25 11:30:49;;;;;;;9.55;4.00;;;15.70;99.90;;;;;;4986470;28;20086;-69
2023/10/25 11:33:16;;;;;;;12.68;5.70;;;15.70;99.90;;;;;;5013329;28;20554;-69
2023/10/25 11:35:45;;;;;;;7.93;3.65;;;15.90;99.90;;;;;;5013077;28;20393;-70
2023/10/25 11:38:11;;;;;;;6.05;4.03;;;16.10;99.90;;;;;;5010107;28;20470;-70
2023/10/25 11:40:39;;;;;;;10.18;4.20;;;16.20;99.90;;;;;;5013325;28;20060;-69
2023/10/25 11:43:06;;;;;;;8.50;3.80;;;16.20;99.90;;;;;;5028683;28;20045;-69
2023/10/25 11:45:33;;;;;;;7.20;3.33;;;16.10;99.90;;;;;;5029034;28;20554;-69
2023/10/25 11:47:59;;;;;;;9.20;3.60;;;16.00;99.90;;;;;;5013048;28;20471;-69
2023/10/25 11:50:24;;;;;;;8.25;3.17;;;15.70;99.90;;;;;;5013523;28;20048;-69
2023/10/25 11:52:50;;;;;;;9.27;3.33;;;15.40;99.90;;;;;;4997777;28;20071;-69
2023/10/25 11:55:16;;;;;;;8.30;3.15;;;15.30;99.90;;;;;;5029989;28;20738;-67
2023/10/25 11:57:42;;;;;;;8.10;3.20;;;15.10;99.90;;;;;;5005954;28;20377;-70
2023/10/25 12:00:08;;;;;;;8.18;3.22;;;14.90;99.90;;;;;;5012491;28;20048;-68
2023/10/25 12:02:35;;;;;;;6.28;3.08;;;14.70;99.90;;;;;;5011716;28;20037;-68
2023/10/25 12:05:03;;;;;;;9.07;3.78;;;14.50;99.90;;;;;;4992278;28;20171;-69
2023/10/25 12:07:30;;;;;;;6.03;3.35;;;14.20;99.90;;;;;;5032754;28;20044;-68
2023/10/25 12:09:56;;;;;;;7.65;3.60;;;14.10;99.90;;;;;;5032653;28;20418;-67
2023/10/25 12:12:22;;;;;;;7.55;4.15;;;14.00;99.90;;;;;;5011439;28;20318;-68
2023/10/25 12:14:49;;;;;;;6.82;3.85;;;14.00;99.90;;;;;;5032380;28;20072;-69
2023/10/25 12:17:15;;;;;;;8.35;3.78;;;14.00;99.90;;;;;;5010032;28;20580;-70
2023/10/25 12:19:41;;;;;;;11.35;4.00;;;13.90;99.90;;;;;;5027586;28;20028;-70
2023/10/25 12:22:09;;;;;;;7.03;3.42;;;13.80;99.90;;;;;;5015821;28;20059;-69
2023/10/25 12:24:36;;;;;;;7.13;3.38;;;13.80;99.90;;;;;;5015632;28;20028;-69
2023/10/25 12:27:03;;;;;;;6.78;3.28;;;13.90;99.90;;;;;;5031100;28;20450;-69
2023/10/25 12:29:29;;;;;;;8.13;2.60;;;13.80;99.90;;;;;;5031486;28;20130;-68
2023/10/25 12:31:55;;;;;;;5.50;2.72;;;13.80;99.90;;;;;;5009566;28;20638;-69
2023/10/25 12:34:20;;;;;;;6.63;2.53;;;13.80;99.90;;;;;;4999154;28;20048;-68
2023/10/25 12:36:46;;;;;;;6.05;2.40;;;13.70;99.90;;;;;;5014905;28;20126;-70
2023/10/25 12:39:13;;;;;;;5.72;2.60;;;13.60;99.90;;;;;;5032959;28;20041;-69
2023/10/25 12:41:39;;;;;;;8.00;2.80;;;13.60;99.90;;;;;;5015634;28;20072;-68
2023/10/25 12:44:08;;;;;;;9.82;3.28;;;13.60;99.90;;;;;;5031725;28;20704;-68
2023/10/25 12:46:36;;;;;;;7.13;2.95;;;13.60;99.90;;;;;;5031161;28;20341;-68
2023/10/25 12:49:03;;;;;;;8.90;2.90;;;13.60;99.90;;;;;;5009512;28;20060;-69
2023/10/25 12:51:32;;;;;;;9.65;3.42;;;13.50;99.90;;;;;;5015216;28;20037;-70
2023/10/25 12:53:58;;;;;;;8.50;2.88;;;13.40;99.90;;;;;;5023708;28;20040;-69
2023/10/25 12:56:25;;;;;;;7.25;2.88;;;13.40;99.90;;;;;;5014522;28;20032;-69
2023/10/25 12:58:51;;;;;;;8.77;2.63;;;13.40;99.90;;;;;;5014221;28;20059;-69
2023/10/25 13:01:18;;;;;;;8.18;2.78;;;13.40;99.90;;;;;;5011231;28;20044;-68
2023/10/25 13:03:44;;;;;;;9.70;2.58;;;13.40;99.90;;;;;;5030243;28;20119;-68
2023/10/25 13:06:10;;;;;;;8.32;2.58;;;13.40;99.90;;;;;;5013985;28;20075;-67
2023/10/25 13:08:37;;;;;;;8.85;2.63;;;13.40;99.90;;;;;;5030960;28;20495;-69
2023/10/25 13:11:02;;;;;;;5.47;2.20;;;13.40;99.90;;;;;;5030356;28;20150;-69
2023/10/25 13:13:29;;;;;;;5.63;2.40;;;13.30;99.90;;;;;;4998362;28;20055;-68
2023/10/25 13:15:54;;;;;;;8.55;3.42;;;13.30;99.90;;;;;;5010075;28;20036;-68
2023/10/25 13:18:20;;;;;;;7.97;3.60;;;13.20;99.90;;;;;;5015104;28;20469;-69
2023/10/25 13:20:46;;;;;;;6.30;3.17;;;13.10;99.90;;;;;;5031437;28;20544;-68
2023/10/25 13:23:12;;;;;;;6.60;4.20;;;13.10;99.90;;;;;;4997827;28;20040;-69
2023/10/25 13:25:39;;;;;;;7.18;3.28;;;13.00;99.90;;;;;;5030533;28;20048;-69
2023/10/25 13:28:05;;;;;;;9.68;3.33;;;13.00;99.90;;;;;;5025898;28;20325;-69
2023/10/25 13:30:31;;;;;;;6.88;3.00;;;12.90;99.90;;;;;;4998197;28;20048;-69
2023/10/25 13:32:57;;;;;;;7.07;3.83;;;12.80;99.90;;;;;;5029734;28;20423;-69
2023/10/25 13:35:23;;;;;;;6.28;3.40;;;12.70;99.90;;;;;;5030847;28;20055;-68
2023/10/25 13:37:48;;;;;;;8.32;3.78;;;12.70;99.90;;;;;;5029335;28;20121;-68
2023/10/25 13:40:14;;;;;;;8.27;3.47;;;12.70;99.90;;;;;;5010134;28;20438;-68
2023/10/25 13:42:40;;;;;;;9.25;3.70;;;12.70;99.90;;;;;;4997842;28;20232;-68
2023/10/25 13:45:06;;;;;;;10.55;4.22;;;12.60;99.90;;;;;;5030914;28;20097;-69
2023/10/25 13:47:32;;;;;;;10.35;4.55;;;12.60;99.90;;;;;;5014530;28;20048;-69
2023/10/25 13:49:58;;;;;;;10.38;5.18;;;12.60;99.90;;;;;;5031461;28;20051;-69
2023/10/25 13:52:24;;;;;;;9.75;4.75;;;12.50;99.90;;;;;;5048431;28;20037;-68
2023/10/25 13:54:50;;;;;;;10.40;5.60;;;12.50;99.90;;;;;;5048860;28;20032;-69
2023/10/25 13:57:16;;;;;;;14.05;5.90;;;12.50;99.90;;;;;;4997326;28;20572;-67
2023/10/25 13:59:43;;;;;;;10.98;6.40;;;12.50;99.90;;;;;;5048917;28;20041;-69
2023/10/25 14:02:09;;;;;;;11.90;6.28;;;12.50;99.90;;;;;;5031476;28;20275;-68
2023/10/25 14:04:34;;;;;;;13.45;6.80;;;12.50;99.90;;;;;;5014044;28;20121;-69
2023/10/25 14:07:00;;;;;;;10.90;7.88;;;12.40;99.90;;;;;;5010425;28;20092;-68
2023/10/25 14:09:26;;;;;;;13.63;7.72;;;12.50;99.90;;;;;;5015751;28;20482;-68
2023/10/25 14:11:52;;;;;;;12.68;7.95;;;12.40;99.90;;;;;;5017190;28;20253;-67
2023/10/25 14:14:18;;;;;;;13.50;7.55;;;12.50;99.90;;;;;;5034943;28;20215;-68
2023/10/25 14:16:44;;;;;;;13.90;8.10;;;12.30;99.90;;;;;;5010517;28;20430;-68
2023/10/25 14:19:11;;;;;;;12.43;7.65;;;12.30;99.90;;;;;;5013639;28;20555;-68
2023/10/25 14:21:38;;;;;;;12.93;8.30;;;12.30;99.90;;;;;;5034305;28;20032;-68
2023/10/25 14:24:06;;;;;;;14.75;8.95;;;12.20;99.90;;;;;;5018168;28;20044;-69
2023/10/25 14:26:40;;;;;;;15.68;9.55;;;12.30;99.90;;;;;;5034839;28;20040;-68
2023/10/25 14:29:09;;;;;;;;;;;12.30;99.90;;;;;;5002887;28;20060;-68
2023/10/25 14:31:35;;;;;;;14.57;10.43;;;12.10;99.90;;;;;;5018129;28;19982;-68
2023/10/25 14:34:02;;;;;;;17.05;10.52;;;12.20;99.90;;;;;;5001477;28;20426;-69
2023/10/25 14:36:30;;;;;;;15.18;11.35;;;12.30;99.90;;;;;;5017313;28;20036;-68
2023/10/25 14:38:57;;;;;;;18.67;11.68;;;12.20;99.90;;;;;;5033577;28;20210;-68
2023/10/25 14:41:23;;;;;;;17.48;11.90;;;12.20;99.90;;;;;;5033045;28;20398;-68